Time;durP1;ratioP1;P1;durP2;ratioP2;P2;SDS_P1;SDS_P2;PMS_P1;PMS_P2;Temp;Humidity;BMP_temperature;BMP_pressure;BME280_temperature;BME280_humidity;BME280_pressure;Samples;Min_cycle;Max_cycle;Signal;HPM_P1;HPM_P2
2023/12/12 00:02:43;;;;;;;19.10;9.70;;;4.50;99.90;;;;;;4398020;28;656487;-70
2023/12/12 00:05:30;;;;;;;22.07;9.73;;;4.40;99.90;;;;;;4428566;28;657407;-71
2023/12/12 00:08:17;;;;;;;9.67;3.50;;;4.40;99.90;;;;;;4408750;28;656764;-70
2023/12/12 00:11:06;;;;;;;16.30;7.77;;;4.40;99.90;;;;;;4414384;28;657157;-70
2023/12/12 00:13:53;;;;;;;15.57;7.20;;;4.40;99.90;;;;;;4406052;28;656806;-71
2023/12/12 00:16:41;;;;;;;18.97;8.73;;;4.60;99.90;;;;;;4418241;28;656945;-70
2023/12/12 00:19:29;;;;;;;13.70;6.53;;;4.60;99.90;;;;;;4407082;28;656686;-70
2023/12/12 00:22:16;;;;;;;20.80;8.27;;;4.60;99.90;;;;;;4425634;28;656975;-70
2023/12/12 00:25:03;;;;;;;21.10;9.00;;;4.50;99.90;;;;;;4407727;28;656725;-70
2023/12/12 00:27:50;;;;;;;21.43;7.90;;;4.50;99.90;;;;;;4426900;28;657401;-70
2023/12/12 00:30:37;;;;;;;14.97;7.80;;;4.50;99.90;;;;;;4407408;28;657643;-70
2023/12/12 00:33:26;;;;;;;14.47;8.10;;;4.50;99.90;;;;;;4418668;28;656738;-71
2023/12/12 00:36:13;;;;;;;16.40;8.53;;;4.50;99.90;;;;;;4405698;28;656724;-70
2023/12/12 00:39:00;;;;;;;20.50;9.10;;;4.40;99.90;;;;;;4419928;28;657663;-71
2023/12/12 00:41:48;;;;;;;17.58;8.18;;;4.50;99.90;;;;;;4400508;28;657783;-70
2023/12/12 00:44:36;;;;;;;15.87;7.93;;;4.60;99.90;;;;;;4414835;28;658080;-71
2023/12/12 00:47:23;;;;;;;13.60;7.00;;;4.50;99.90;;;;;;4406229;28;657015;-70
2023/12/12 00:50:11;;;;;;;9.33;3.13;;;4.50;99.90;;;;;;4422347;28;658079;-70
2023/12/12 00:52:58;;;;;;;9.00;4.37;;;4.60;99.90;;;;;;4405467;28;656074;-71
2023/12/12 00:55:46;;;;;;;8.03;4.00;;;4.40;99.90;;;;;;4425054;28;656259;-70
2023/12/12 00:58:33;;;;;;;23.80;6.93;;;4.50;99.90;;;;;;4404162;28;655606;-70
2023/12/12 01:01:20;;;;;;;17.17;9.07;;;4.40;99.90;;;;;;4427119;28;656398;-70
2023/12/12 01:04:08;;;;;;;18.57;8.50;;;4.40;99.90;;;;;;4414322;28;656950;-70
2023/12/12 01:06:57;;;;;;;14.77;7.47;;;4.40;99.90;;;;;;4422669;28;657937;-71
2023/12/12 01:09:44;;;;;;;16.70;8.47;;;4.40;99.90;;;;;;4403985;28;656379;-71
2023/12/12 01:12:31;;;;;;;20.63;9.57;;;4.30;99.90;;;;;;4424862;28;656762;-71
2023/12/12 01:15:18;;;;;;;22.83;8.20;;;4.30;99.90;;;;;;4403642;28;656360;-71
2023/12/12 01:18:05;;;;;;;14.27;7.33;;;4.30;99.90;;;;;;4423831;28;657223;-70
2023/12/12 01:20:53;;;;;;;17.63;7.63;;;4.30;99.90;;;;;;4400646;28;656761;-71
2023/12/12 01:23:52;;;;;;;15.03;6.37;;;4.30;99.90;;;;;;4423838;28;657000;-71
2023/12/12 01:26:39;;;;;;;12.70;5.40;;;4.30;99.90;;;;;;4404506;28;656650;-71
2023/12/12 01:29:26;;;;;;;18.30;8.70;;;4.40;99.90;;;;;;4421723;28;656607;-71
2023/12/12 01:32:13;;;;;;;18.70;7.63;;;4.30;99.90;;;;;;4403427;28;656622;-71
2023/12/12 01:35:01;;;;;;;15.83;7.30;;;4.30;99.90;;;;;;4423673;28;657230;-71
2023/12/12 01:37:48;;;;;;;16.63;7.97;;;4.30;99.90;;;;;;4404207;28;657161;-71
2023/12/12 01:40:36;;;;;;;20.07;8.60;;;4.20;99.90;;;;;;4423069;28;657553;-71
2023/12/12 01:43:24;;;;;;;19.67;8.55;;;4.20;99.90;;;;;;4402834;28;656560;-71
2023/12/12 01:46:14;;;;;;;12.03;6.90;;;4.20;99.90;;;;;;4415912;28;656774;-70
2023/12/12 01:49:01;;;;;;;17.03;8.70;;;4.10;99.90;;;;;;4403090;28;657183;-71
2023/12/12 01:51:48;;;;;;;21.10;9.97;;;4.20;99.90;;;;;;4393943;28;657237;-71
2023/12/12 01:54:36;;;;;;;11.00;6.07;;;4.20;99.90;;;;;;4418377;28;657444;-70
2023/12/12 01:57:25;;;;;;;15.70;8.43;;;4.20;99.90;;;;;;4401403;28;656336;-71
2023/12/12 02:00:13;;;;;;;15.30;8.60;;;4.20;99.90;;;;;;4418952;28;657882;-71
2023/12/12 02:03:00;;;;;;;17.57;8.90;;;4.20;99.90;;;;;;4422124;28;658111;-70
2023/12/12 02:05:48;;;;;;;14.27;8.33;;;4.20;99.90;;;;;;4406212;28;656903;-70
2023/12/12 02:08:35;;;;;;;18.27;8.50;;;4.20;99.90;;;;;;4419224;28;657450;-70
2023/12/12 02:11:22;;;;;;;18.03;9.00;;;4.20;99.90;;;;;;4412517;28;656510;-70
2023/12/12 02:14:11;;;;;;;12.80;4.57;;;4.30;99.90;;;;;;4426034;28;657204;-71
2023/12/12 02:16:59;;;;;;;13.27;5.93;;;4.30;99.90;;;;;;4396541;28;657652;-71
2023/12/12 02:19:46;;;;;;;14.80;6.53;;;4.30;99.90;;;;;;4428443;28;656907;-70
2023/12/12 02:22:35;;;;;;;18.53;8.67;;;4.20;99.90;;;;;;4405114;28;657902;-71
2023/12/12 02:25:22;;;;;;;16.43;7.47;;;4.30;99.90;;;;;;4416930;28;656419;-71
2023/12/12 02:28:10;;;;;;;13.83;7.97;;;4.20;99.90;;;;;;4431718;28;657187;-70
2023/12/12 02:30:57;;;;;;;17.67;7.63;;;4.20;99.90;;;;;;4421608;28;656837;-71
2023/12/12 02:33:44;;;;;;;18.40;6.57;;;4.20;99.90;;;;;;4393502;28;657899;-71
2023/12/12 02:36:31;;;;;;;16.53;5.13;;;4.20;99.90;;;;;;4425967;28;656839;-71
2023/12/12 02:39:20;;;;;;;7.47;4.53;;;4.20;99.90;;;;;;4403813;28;658531;-71
2023/12/12 02:42:07;;;;;;;16.50;6.70;;;4.20;99.90;;;;;;4423569;28;656022;-71
2023/12/12 02:44:56;;;;;;;12.63;6.03;;;4.20;99.90;;;;;;4429937;28;657810;-70
2023/12/12 02:47:43;;;;;;;11.02;5.72;;;4.20;99.90;;;;;;4398488;28;656115;-70
2023/12/12 02:50:31;;;;;;;13.53;6.23;;;4.20;99.90;;;;;;4420043;28;657122;-71
2023/12/12 02:53:18;;;;;;;15.93;6.20;;;4.20;99.90;;;;;;4409327;28;656443;-71
2023/12/12 02:56:07;;;;;;;18.20;6.20;;;4.10;99.90;;;;;;4413879;28;657608;-70
2023/12/12 02:58:54;;;;;;;16.23;6.60;;;4.10;99.90;;;;;;4401488;28;657169;-71
2023/12/12 03:01:42;;;;;;;8.77;4.67;;;4.10;99.90;;;;;;4426052;28;656818;-71
2023/12/12 03:04:29;;;;;;;18.07;6.17;;;4.10;99.90;;;;;;4404791;28;656047;-71
2023/12/12 03:07:16;;;;;;;10.07;5.80;;;4.10;99.90;;;;;;4424921;28;656436;-70
2023/12/12 03:10:04;;;;;;;7.37;3.67;;;4.10;99.90;;;;;;4400514;28;656491;-71
2023/12/12 03:12:52;;;;;;;15.17;6.10;;;4.20;99.90;;;;;;4425742;28;656632;-71
2023/12/12 03:15:39;;;;;;;9.83;4.57;;;4.10;99.90;;;;;;4405979;28;656814;-71
2023/12/12 03:18:27;;;;;;;16.07;6.70;;;4.10;99.90;;;;;;4430418;28;656352;-71
2023/12/12 03:21:14;;;;;;;12.40;5.67;;;4.20;99.90;;;;;;4404869;28;657051;-71
2023/12/12 03:24:01;;;;;;;11.60;5.00;;;4.20;99.90;;;;;;4430766;28;656404;-71
2023/12/12 03:26:48;;;;;;;10.97;5.60;;;4.20;99.90;;;;;;4403563;28;656699;-71
2023/12/12 03:29:38;;;;;;;12.90;4.83;;;4.20;99.90;;;;;;4417405;28;658565;-71
2023/12/12 03:32:25;;;;;;;13.80;6.33;;;4.10;99.90;;;;;;4401423;28;657753;-71
2023/12/12 03:35:12;;;;;;;14.10;6.40;;;4.10;99.90;;;;;;4415486;28;656711;-71
2023/12/12 03:38:00;;;;;;;17.23;6.33;;;4.20;99.90;;;;;;4425769;28;658482;-71
2023/12/12 03:40:47;;;;;;;15.37;6.60;;;4.10;99.90;;;;;;4428443;28;657028;-71
2023/12/12 03:43:34;;;;;;;11.40;4.83;;;4.10;99.90;;;;;;4409291;28;657317;-71
2023/12/12 03:46:23;;;;;;;13.05;6.07;;;4.20;99.90;;;;;;4425233;28;656830;-72
2023/12/12 03:49:10;;;;;;;13.00;5.03;;;4.20;99.90;;;;;;4407548;28;656902;-72
2023/12/12 03:51:57;;;;;;;10.57;5.83;;;4.10;99.90;;;;;;4420705;28;656996;-71
2023/12/12 03:54:45;;;;;;;5.77;3.47;;;4.10;99.90;;;;;;4432662;28;658006;-71
2023/12/12 03:57:32;;;;;;;14.90;5.80;;;4.20;99.90;;;;;;4432495;28;654698;-71
2023/12/12 04:00:19;;;;;;;10.97;3.60;;;4.10;99.90;;;;;;4409480;28;657105;-71
2023/12/12 04:03:08;;;;;;;6.17;2.43;;;4.20;99.90;;;;;;4425050;28;656594;-70
2023/12/12 04:05:55;;;;;;;13.33;5.00;;;4.20;99.90;;;;;;4412298;28;656391;-71
2023/12/12 04:08:42;;;;;;;6.30;3.05;;;4.20;99.90;;;;;;4411357;28;656667;-70
2023/12/12 04:11:30;;;;;;;15.50;5.40;;;4.20;99.90;;;;;;4427026;28;656188;-71
2023/12/12 04:14:17;;;;;;;10.33;5.80;;;4.10;99.90;;;;;;4424125;28;656270;-72
2023/12/12 04:17:04;;;;;;;13.40;6.00;;;4.10;99.90;;;;;;4402765;28;657865;-72
2023/12/12 04:19:53;;;;;;;13.23;6.23;;;4.10;99.90;;;;;;4422840;28;656987;-71
2023/12/12 04:22:40;;;;;;;15.50;6.53;;;4.10;99.90;;;;;;4407335;28;657073;-71
2023/12/12 04:25:27;;;;;;;12.47;6.43;;;4.10;99.90;;;;;;4404216;28;656465;-71
2023/12/12 04:28:15;;;;;;;13.90;6.60;;;4.10;99.90;;;;;;4424638;28;657698;-71
2023/12/12 04:31:02;;;;;;;14.20;6.40;;;4.00;99.90;;;;;;4425612;28;656540;-71
2023/12/12 04:33:49;;;;;;;11.73;6.30;;;4.10;99.90;;;;;;4400376;28;656613;-72
2023/12/12 04:36:37;;;;;;;9.73;4.13;;;4.20;99.90;;;;;;4434180;28;656357;-71
2023/12/12 04:39:25;;;;;;;13.90;6.17;;;4.20;99.90;;;;;;4404964;28;656468;-71
2023/12/12 04:42:13;;;;;;;12.93;5.90;;;4.10;99.90;;;;;;4412401;28;656579;-71
2023/12/12 04:45:00;;;;;;;14.37;6.30;;;4.10;99.90;;;;;;4427752;28;656859;-72
2023/12/12 04:47:47;;;;;;;12.90;4.80;;;4.20;99.90;;;;;;4405678;28;657145;-71
2023/12/12 04:50:35;;;;;;;12.60;4.20;;;4.30;99.90;;;;;;4427901;28;657721;-72
2023/12/12 04:53:23;;;;;;;10.70;5.50;;;4.20;99.90;;;;;;4440550;28;656572;-71
2023/12/12 04:56:11;;;;;;;14.40;4.80;;;4.20;99.90;;;;;;4413899;28;659635;-72
2023/12/12 04:58:58;;;;;;;13.33;5.03;;;4.20;99.90;;;;;;4403503;28;656247;-70
2023/12/12 05:01:45;;;;;;;15.60;5.07;;;4.10;99.90;;;;;;4429111;28;657571;-71
2023/12/12 05:04:32;;;;;;;8.10;4.55;;;4.20;99.90;;;;;;4411213;28;656398;-71
2023/12/12 05:07:20;;;;;;;4.27;2.00;;;4.10;99.90;;;;;;4425188;28;657089;-71
2023/12/12 05:10:09;;;;;;;12.57;5.53;;;4.20;99.90;;;;;;4421181;28;655262;-71
2023/12/12 05:12:57;;;;;;;13.43;5.40;;;4.20;99.90;;;;;;4418319;28;656315;-72
2023/12/12 05:15:44;;;;;;;10.33;4.70;;;4.20;99.90;;;;;;4399976;28;656796;-71
2023/12/12 05:18:31;;;;;;;13.83;5.70;;;4.20;99.90;;;;;;4422094;28;657081;-71
2023/12/12 05:21:21;;;;;;;15.57;6.57;;;4.10;99.90;;;;;;4402967;28;656645;-72
2023/12/12 05:24:08;;;;;;;11.43;5.80;;;4.10;99.90;;;;;;4403653;28;656924;-72
2023/12/12 05:26:57;;;;;;;9.93;5.17;;;4.20;99.90;;;;;;4424894;28;657902;-72
2023/12/12 05:29:44;;;;;;;9.50;5.53;;;4.20;99.90;;;;;;4404190;28;656372;-72
2023/12/12 05:32:31;;;;;;;14.87;5.30;;;4.20;99.90;;;;;;4423241;28;655587;-71
2023/12/12 05:35:18;;;;;;;15.82;5.30;;;4.20;99.90;;;;;;4402658;28;656432;-71
2023/12/12 05:38:06;;;;;;;10.53;5.67;;;4.20;99.90;;;;;;4425215;28;656815;-70
2023/12/12 05:40:53;;;;;;;14.30;5.77;;;4.00;99.90;;;;;;4409583;28;656505;-72
2023/12/12 05:43:42;;;;;;;13.67;6.03;;;4.00;99.90;;;;;;4418078;28;656812;-72
2023/12/12 05:46:29;;;;;;;13.73;5.63;;;4.00;99.90;;;;;;4400950;28;657609;-72
2023/12/12 05:49:16;;;;;;;12.07;5.35;;;4.00;99.90;;;;;;4427946;28;656372;-72
2023/12/12 05:52:05;;;;;;;11.93;4.67;;;4.00;99.90;;;;;;4397123;28;656556;-71
2023/12/12 05:54:52;;;;;;;13.17;5.67;;;4.00;99.90;;;;;;4422282;28;656439;-72
2023/12/12 05:57:39;;;;;;;12.70;6.03;;;4.00;99.90;;;;;;4399426;28;657730;-72
2023/12/12 06:00:29;;;;;;;15.00;6.53;;;3.90;99.90;;;;;;4422327;28;656168;-72
2023/12/12 06:03:16;;;;;;;15.00;5.87;;;3.90;99.90;;;;;;4401953;28;656381;-72
2023/12/12 06:06:07;;;;;;;13.90;6.87;;;3.90;99.90;;;;;;4401249;28;657384;-72
2023/12/12 06:08:55;;;;;;;15.33;6.57;;;3.80;99.90;;;;;;4399743;28;657376;-71
2023/12/12 06:11:43;;;;;;;18.13;7.50;;;3.80;99.90;;;;;;4422325;28;657432;-72
2023/12/12 06:14:30;;;;;;;14.47;7.53;;;3.80;99.90;;;;;;4398686;28;658160;-72
2023/12/12 06:17:19;;;;;;;18.87;8.27;;;3.80;99.90;;;;;;4415786;28;657105;-72
2023/12/12 06:20:07;;;;;;;14.30;7.30;;;3.90;99.90;;;;;;4420145;28;656520;-72
2023/12/12 06:22:54;;;;;;;16.83;8.23;;;3.90;99.90;;;;;;4414968;28;658507;-72
2023/12/12 06:25:42;;;;;;;18.57;8.33;;;3.90;99.90;;;;;;4420223;28;656714;-72
2023/12/12 06:28:29;;;;;;;16.00;8.73;;;3.90;99.90;;;;;;4401338;28;657225;-71
2023/12/12 06:31:17;;;;;;;16.80;8.03;;;4.00;99.90;;;;;;4415968;28;657230;-71
2023/12/12 06:34:05;;;;;;;19.83;6.67;;;3.90;99.90;;;;;;4402267;28;656334;-71
2023/12/12 06:36:52;;;;;;;19.23;8.90;;;3.90;99.90;;;;;;4406791;28;656842;-72
2023/12/12 06:39:39;;;;;;;17.97;8.17;;;3.90;99.90;;;;;;4422376;28;656267;-72
2023/12/12 06:42:27;;;;;;;16.23;6.97;;;3.90;99.90;;;;;;4428153;28;656366;-71
2023/12/12 06:45:14;;;;;;;16.70;8.00;;;3.90;99.90;;;;;;4396488;28;656017;-72
2023/12/12 06:48:02;;;;;;;18.57;8.17;;;3.90;99.90;;;;;;4425451;28;656657;-72
2023/12/12 06:50:52;;;;;;;16.40;8.10;;;3.90;99.90;;;;;;4403231;28;657216;-73
2023/12/12 06:53:39;;;;;;;18.70;8.87;;;3.90;99.90;;;;;;4405021;28;658449;-72
2023/12/12 06:56:26;;;;;;;17.63;8.30;;;3.90;99.90;;;;;;4427921;28;656435;-72
2023/12/12 06:59:13;;;;;;;16.17;7.17;;;4.00;99.90;;;;;;4402087;28;656636;-72
2023/12/12 07:02:01;;;;;;;17.95;9.68;;;4.00;99.90;;;;;;4418737;28;657497;-72
2023/12/12 07:04:48;;;;;;;18.40;9.57;;;4.00;99.90;;;;;;4399887;28;656690;-72
2023/12/12 07:07:36;;;;;;;19.17;7.63;;;4.00;99.90;;;;;;4427406;28;657966;-72
2023/12/12 07:10:23;;;;;;;21.65;10.75;;;4.00;99.90;;;;;;4405035;28;656600;-72
2023/12/12 07:13:11;;;;;;;11.30;5.10;;;3.90;99.90;;;;;;4421721;28;658161;-71
2023/12/12 07:15:58;;;;;;;19.00;9.17;;;4.00;99.90;;;;;;4405553;28;656544;-72
2023/12/12 07:18:45;;;;;;;21.23;10.77;;;4.00;99.90;;;;;;4429616;28;657493;-72
2023/12/12 07:21:39;;;;;;;21.70;10.38;;;4.00;99.90;;;;;;4407413;28;657934;-71
2023/12/12 07:24:27;;;;;;;14.43;6.50;;;4.00;99.90;;;;;;4400783;28;657556;-72
2023/12/12 07:27:15;;;;;;;19.37;8.97;;;4.00;99.90;;;;;;4395878;28;656723;-72
2023/12/12 07:30:03;;;;;;;16.20;7.97;;;4.10;99.90;;;;;;4406563;28;657013;-71
2023/12/12 07:32:50;;;;;;;16.80;6.07;;;4.10;99.90;;;;;;4430045;28;657200;-72
2023/12/12 07:35:38;;;;;;;19.13;9.73;;;4.10;99.90;;;;;;4406087;28;656351;-71
2023/12/12 07:38:25;;;;;;;23.30;10.80;;;4.20;99.90;;;;;;4416267;28;657463;-72
2023/12/12 07:41:15;;;;;;;23.55;10.95;;;4.20;99.90;;;;;;4402043;28;658176;-72
2023/12/12 07:44:03;;;;;;;19.80;10.07;;;4.30;99.90;;;;;;4414057;28;657625;-72
2023/12/12 07:46:50;;;;;;;10.97;6.20;;;4.30;99.90;;;;;;4423035;28;658428;-72
2023/12/12 07:49:37;;;;;;;24.33;8.50;;;4.30;99.90;;;;;;4422394;28;657377;-72
2023/12/12 07:52:25;;;;;;;23.57;10.67;;;4.30;99.90;;;;;;4425856;28;657652;-73
2023/12/12 07:55:12;;;;;;;23.93;10.03;;;4.40;99.90;;;;;;4425251;28;657642;-73
2023/12/12 07:58:00;;;;;;;17.10;8.07;;;4.30;99.90;;;;;;4402944;28;658389;-72
2023/12/12 08:00:47;;;;;;;24.80;10.75;;;4.30;99.90;;;;;;4405664;28;657194;-71
2023/12/12 08:03:35;;;;;;;5.80;2.97;;;4.20;99.90;;;;;;4429329;28;658467;-72
2023/12/12 08:06:22;;;;;;;22.30;9.10;;;4.30;99.90;;;;;;4429878;28;655923;-72
2023/12/12 08:09:09;;;;;;;15.70;8.57;;;4.30;99.90;;;;;;4405511;28;657927;-73
2023/12/12 08:11:57;;;;;;;17.30;9.47;;;4.20;99.90;;;;;;4420526;28;656610;-72
2023/12/12 08:14:46;;;;;;;20.87;9.87;;;4.20;99.90;;;;;;4399501;28;657915;-72
2023/12/12 08:17:33;;;;;;;17.47;9.50;;;4.30;99.90;;;;;;4404529;28;657629;-72
2023/12/12 08:20:21;;;;;;;19.43;10.37;;;4.30;99.90;;;;;;4426081;28;657547;-72
2023/12/12 08:23:09;;;;;;;19.87;10.20;;;4.20;99.90;;;;;;4404156;28;657720;-73
2023/12/12 08:25:56;;;;;;;20.73;10.17;;;4.20;99.90;;;;;;4422208;28;657633;-72
2023/12/12 08:28:44;;;;;;;28.30;11.17;;;4.20;99.90;;;;;;4406142;28;657201;-72
2023/12/12 08:31:32;;;;;;;24.33;10.80;;;4.20;99.90;;;;;;4427132;28;658179;-73
2023/12/12 08:34:19;;;;;;;25.80;12.27;;;4.30;99.90;;;;;;4403205;28;658186;-73
2023/12/12 08:37:06;;;;;;;19.15;9.45;;;4.30;99.90;;;;;;4428352;28;658192;-73
2023/12/12 08:39:54;;;;;;;24.57;11.57;;;4.40;99.90;;;;;;4400572;28;656438;-73
2023/12/12 08:42:41;;;;;;;22.80;9.93;;;4.70;99.90;;;;;;4416254;28;657624;-72
2023/12/12 08:45:29;;;;;;;20.33;10.10;;;4.80;99.90;;;;;;4396171;28;657171;-72
2023/12/12 08:48:17;;;;;;;19.60;9.17;;;5.00;99.90;;;;;;4422589;28;658465;-72
2023/12/12 08:51:05;;;;;;;15.80;6.57;;;4.90;99.90;;;;;;4404873;28;657182;-71
2023/12/12 08:53:52;;;;;;;19.87;10.53;;;5.00;99.90;;;;;;4419398;28;656447;-72
2023/12/12 08:56:41;;;;;;;22.87;11.70;;;5.00;99.90;;;;;;4418469;28;658959;-73
2023/12/12 08:59:28;;;;;;;23.43;11.33;;;4.90;99.90;;;;;;4397430;28;657501;-72
2023/12/12 09:02:16;;;;;;;21.93;11.00;;;4.90;99.90;;;;;;4427658;28;658215;-73
2023/12/12 09:05:06;;;;;;;19.50;10.67;;;4.90;99.90;;;;;;4404548;28;658336;-71
2023/12/12 09:07:53;;;;;;;17.93;9.47;;;4.80;99.90;;;;;;4400334;28;657898;-72
2023/12/12 09:10:40;;;;;;;25.10;10.40;;;4.90;99.90;;;;;;4424755;28;657044;-73
2023/12/12 09:13:28;;;;;;;23.57;10.83;;;4.90;99.90;;;;;;4404046;28;657415;-72
2023/12/12 09:16:15;;;;;;;24.07;11.30;;;4.70;99.90;;;;;;4425261;28;658133;-72
2023/12/12 09:19:02;;;;;;;24.93;9.50;;;4.60;99.90;;;;;;4419131;28;657835;-71
2023/12/12 09:21:53;;;;;;;19.67;10.50;;;4.60;99.90;;;;;;4427696;28;657841;-72
2023/12/12 09:24:40;;;;;;;21.83;9.40;;;4.50;99.90;;;;;;4398327;28;658794;-72
2023/12/12 09:27:28;;;;;;;22.73;11.37;;;4.60;99.90;;;;;;4406283;28;656674;-73
2023/12/12 09:30:15;;;;;;;22.80;10.47;;;4.50;99.90;;;;;;4424374;28;658816;-73
2023/12/12 09:33:02;;;;;;;24.73;10.67;;;4.50;99.90;;;;;;4403314;28;657388;-72
2023/12/12 09:35:50;;;;;;;21.37;11.97;;;4.50;99.90;;;;;;4420584;28;658271;-72
2023/12/12 09:38:39;;;;;;;21.70;10.37;;;4.50;99.90;;;;;;4423438;28;657596;-72
2023/12/12 09:41:26;;;;;;;20.27;11.03;;;4.60;99.90;;;;;;4416192;28;657954;-72
2023/12/12 09:44:14;;;;;;;11.03;5.60;;;4.60;99.90;;;;;;4401244;28;658212;-73
2023/12/12 09:47:03;;;;;;;26.10;12.30;;;4.60;99.90;;;;;;4414464;28;656205;-72
2023/12/12 09:49:51;;;;;;;22.93;11.33;;;4.60;99.90;;;;;;4402167;28;658583;-73
2023/12/12 09:52:38;;;;;;;11.37;7.47;;;4.70;99.90;;;;;;4399741;28;657535;-72
2023/12/12 09:55:28;;;;;;;20.57;11.03;;;4.70;99.90;;;;;;4422958;28;657856;-72
2023/12/12 09:58:15;;;;;;;23.97;10.00;;;4.80;99.90;;;;;;4393180;28;658062;-72
2023/12/12 10:01:03;;;;;;;24.93;12.37;;;4.80;99.90;;;;;;4410465;28;657747;-71
2023/12/12 10:03:50;;;;;;;24.50;12.07;;;4.80;99.90;;;;;;4426076;28;658708;-72
2023/12/12 10:06:40;;;;;;;20.47;9.57;;;4.80;99.90;;;;;;4397375;28;657619;-72
2023/12/12 10:09:31;;;;;;;9.37;3.87;;;4.70;99.90;;;;;;4400513;28;656778;-71
2023/12/12 10:12:19;;;;;;;22.37;10.37;;;4.70;99.90;;;;;;4406193;28;656276;-72
2023/12/12 10:15:23;;;;;;;18.98;9.52;;;4.60;99.90;;;;;;4421030;28;658257;-73
2023/12/12 10:18:10;;;;;;;23.23;8.93;;;4.50;99.90;;;;;;4401106;28;657272;-72
2023/12/12 10:20:58;;;;;;;10.70;4.77;;;4.60;99.90;;;;;;4398760;28;657016;-72
2023/12/12 10:23:46;;;;;;;23.43;10.30;;;4.50;99.90;;;;;;4424776;28;657962;-72
2023/12/12 10:26:33;;;;;;;21.10;10.50;;;4.40;99.90;;;;;;4403496;28;657939;-72
2023/12/12 10:29:22;;;;;;;17.03;8.50;;;4.40;99.90;;;;;;4417577;28;658135;-72
2023/12/12 10:32:09;;;;;;;16.67;8.43;;;4.40;99.90;;;;;;4396795;28;657554;-71
2023/12/12 10:34:56;;;;;;;25.97;12.17;;;4.40;99.90;;;;;;4424487;28;656599;-72
2023/12/12 10:37:43;;;;;;;23.87;11.63;;;4.40;99.90;;;;;;4395470;28;657697;-72
2023/12/12 10:40:30;;;;;;;22.87;12.03;;;4.40;99.90;;;;;;4424799;28;659123;-72
2023/12/12 10:43:18;;;;;;;20.07;8.70;;;4.30;99.90;;;;;;4401106;28;659114;-72
2023/12/12 10:46:07;;;;;;;13.67;6.73;;;4.40;99.90;;;;;;4421289;28;657575;-72
2023/12/12 10:48:55;;;;;;;28.50;13.20;;;4.40;99.90;;;;;;4400907;28;657804;-72
2023/12/12 10:51:42;;;;;;;23.80;13.57;;;4.30;99.90;;;;;;4422887;28;657513;-72
2023/12/12 10:54:30;;;;;;;22.53;12.83;;;4.30;99.90;;;;;;4401973;28;658138;-72
2023/12/12 10:57:18;;;;;;;27.80;12.47;;;4.40;99.90;;;;;;4419093;28;657530;-71
2023/12/12 11:00:11;;;;;;;26.20;13.27;;;4.30;99.90;;;;;;4395105;28;658220;-72
2023/12/12 11:02:59;;;;;;;26.93;12.77;;;4.40;99.90;;;;;;4372631;28;658696;-72
2023/12/12 11:05:47;;;;;;;24.37;13.00;;;4.40;99.90;;;;;;4424825;28;657780;-72
2023/12/12 11:08:34;;;;;;;25.40;13.53;;;4.40;99.90;;;;;;4399265;28;658286;-72
2023/12/12 11:11:21;;;;;;;24.20;11.33;;;4.50;99.90;;;;;;4419688;28;658171;-72
2023/12/12 11:14:08;;;;;;;24.77;11.73;;;4.60;99.90;;;;;;4401499;28;658777;-72
2023/12/12 11:16:58;;;;;;;23.60;12.10;;;4.60;99.90;;;;;;4421591;28;658527;-73
2023/12/12 11:19:47;;;;;;;26.88;13.80;;;4.60;99.90;;;;;;4396522;28;657889;-72
2023/12/12 11:22:38;;;;;;;27.33;12.70;;;4.60;99.90;;;;;;4411499;28;658286;-72
2023/12/12 11:25:27;;;;;;;23.83;13.83;;;4.60;99.90;;;;;;4401277;28;659385;-73
2023/12/12 11:28:14;;;;;;;26.60;11.77;;;4.40;99.90;;;;;;4404070;28;659535;-72
2023/12/12 11:31:02;;;;;;;28.47;13.50;;;4.50;99.90;;;;;;4423616;28;657426;-73
2023/12/12 11:34:04;;;;;;;23.97;12.70;;;4.50;99.90;;;;;;4404024;28;658165;-73
2023/12/12 11:36:54;;;;;;;21.83;11.77;;;4.70;99.90;;;;;;4402940;28;657753;-72
2023/12/12 11:39:49;;;;;;;25.40;12.13;;;4.60;99.90;;;;;;4406256;28;657687;-72
2023/12/12 11:42:36;;;;;;;25.20;10.70;;;4.60;99.90;;;;;;4398004;28;657410;-72
2023/12/12 11:45:31;;;;;;;27.90;12.60;;;4.60;99.90;;;;;;4397070;28;658757;-72
2023/12/12 11:48:18;;;;;;;25.03;11.87;;;4.70;99.90;;;;;;4404276;28;657953;-73
2023/12/12 11:51:39;;;;;;;20.20;8.10;;;4.80;99.90;;;;;;4421242;28;658271;-72
2023/12/12 11:54:27;;;;;;;24.40;12.03;;;4.80;99.90;;;;;;4406269;28;656544;-72
2023/12/12 11:57:14;;;;;;;26.17;12.05;;;4.70;99.90;;;;;;4404339;28;658047;-72
2023/12/12 12:00:02;;;;;;;22.00;12.30;;;4.80;99.90;;;;;;4421299;28;657679;-71
2023/12/12 12:02:50;;;;;;;31.87;12.83;;;4.80;99.90;;;;;;4399738;28;658188;-72
2023/12/12 12:05:37;;;;;;;23.57;9.13;;;4.70;99.90;;;;;;4422384;28;657714;-71
2023/12/12 12:08:25;;;;;;;25.33;13.30;;;4.80;99.90;;;;;;4420257;28;656878;-73
2023/12/12 12:11:13;;;;;;;28.67;12.90;;;4.70;99.90;;;;;;4424645;28;657354;-72
2023/12/12 12:14:00;;;;;;;27.33;13.00;;;4.70;99.90;;;;;;4399320;28;658907;-73
2023/12/12 12:16:48;;;;;;;30.13;12.50;;;4.80;99.90;;;;;;4397810;28;658250;-71
2023/12/12 12:19:37;;;;;;;22.53;12.70;;;4.80;99.90;;;;;;4426739;28;658050;-72
2023/12/12 12:22:24;;;;;;;24.87;12.23;;;4.90;99.90;;;;;;4403123;28;658935;-72
2023/12/12 12:25:12;;;;;;;25.37;12.47;;;4.90;99.90;;;;;;4422383;28;657563;-72
2023/12/12 12:28:01;;;;;;;20.53;11.80;;;4.80;99.90;;;;;;4398754;28;657719;-72
2023/12/12 12:30:48;;;;;;;24.43;11.70;;;4.80;99.90;;;;;;4406198;28;658004;-72
2023/12/12 12:33:35;;;;;;;24.13;11.70;;;4.90;99.90;;;;;;4422597;28;657812;-72
2023/12/12 12:36:23;;;;;;;18.83;10.50;;;4.90;99.90;;;;;;4403261;28;657919;-72
2023/12/12 12:39:10;;;;;;;24.53;11.07;;;5.00;99.90;;;;;;4421259;28;658682;-72
2023/12/12 12:41:58;;;;;;;20.23;10.60;;;5.00;99.90;;;;;;4402068;28;657381;-72
2023/12/12 12:44:46;;;;;;;23.37;11.50;;;5.00;99.90;;;;;;4426934;28;657893;-72
2023/12/12 12:47:34;;;;;;;25.13;11.13;;;4.90;99.90;;;;;;4402603;28;658958;-73
2023/12/12 12:50:21;;;;;;;19.50;9.10;;;5.00;99.90;;;;;;4426833;28;658161;-72
2023/12/12 12:53:09;;;;;;;27.90;12.93;;;5.00;99.90;;;;;;4400822;28;656321;-72
2023/12/12 12:55:56;;;;;;;31.47;12.53;;;5.00;99.90;;;;;;4422174;28;657462;-73
2023/12/12 12:58:43;;;;;;;20.30;11.20;;;5.00;99.90;;;;;;4403831;28;657505;-72
2023/12/12 13:01:32;;;;;;;22.70;10.80;;;5.00;99.90;;;;;;4425329;28;658328;-72
2023/12/12 13:04:19;;;;;;;25.17;12.37;;;5.10;99.90;;;;;;4389595;28;658596;-72
2023/12/12 13:07:07;;;;;;;29.07;12.53;;;5.10;99.90;;;;;;4418730;28;657987;-72
2023/12/12 13:09:54;;;;;;;26.08;11.63;;;5.10;99.90;;;;;;4396740;28;658957;-72
2023/12/12 13:12:42;;;;;;;25.97;11.50;;;5.20;99.90;;;;;;4422026;28;658068;-72
2023/12/12 13:15:29;;;;;;;20.07;10.87;;;5.20;99.90;;;;;;4398032;28;657652;-72
2023/12/12 13:18:18;;;;;;;20.23;11.40;;;5.10;99.90;;;;;;4422296;28;657712;-73
2023/12/12 13:21:06;;;;;;;24.63;11.87;;;5.10;99.90;;;;;;4393076;28;658344;-73
2023/12/12 13:23:53;;;;;;;28.02;13.00;;;5.10;99.90;;;;;;4394194;28;657631;-73
2023/12/12 13:26:41;;;;;;;27.23;13.27;;;5.10;99.90;;;;;;4412758;28;659179;-72
2023/12/12 13:29:28;;;;;;;23.50;12.00;;;5.10;99.90;;;;;;4395745;28;657257;-72
2023/12/12 13:32:15;;;;;;;32.43;15.33;;;4.90;99.90;;;;;;4408496;28;659185;-72
2023/12/12 13:35:04;;;;;;;35.77;16.80;;;4.90;99.90;;;;;;4412583;28;657956;-71
2023/12/12 13:37:51;;;;;;;38.50;18.20;;;4.90;99.90;;;;;;4420837;28;658271;-73
2023/12/12 13:40:39;;;;;;;38.40;18.30;;;4.80;99.90;;;;;;4401751;28;658434;-71
2023/12/12 13:43:26;;;;;;;38.73;18.93;;;4.60;99.90;;;;;;4423827;28;657678;-73
2023/12/12 13:46:13;;;;;;;41.03;19.50;;;4.60;99.90;;;;;;4400792;28;657530;-72
2023/12/12 13:49:00;;;;;;;40.50;19.07;;;4.60;99.90;;;;;;4423447;28;658760;-72
2023/12/12 13:51:49;;;;;;;42.70;19.90;;;4.60;99.90;;;;;;4401345;28;658340;-72
2023/12/12 13:54:36;;;;;;;34.63;17.70;;;4.50;99.90;;;;;;4422833;28;657578;-72
2023/12/12 13:57:23;;;;;;;42.40;20.83;;;4.50;99.90;;;;;;4405595;28;658089;-72
2023/12/12 14:00:12;;;;;;;40.83;21.35;;;4.30;99.90;;;;;;4419881;28;659151;-72
2023/12/12 14:02:59;;;;;;;53.90;27.77;;;4.30;99.90;;;;;;4393086;28;659444;-72
2023/12/12 14:05:46;;;;;;;56.43;28.87;;;4.30;99.90;;;;;;4419099;28;657267;-71
2023/12/12 14:08:35;;;;;;;34.53;18.93;;;4.30;99.90;;;;;;4401980;28;657891;-72
2023/12/12 14:11:24;;;;;;;54.63;27.10;;;4.10;99.90;;;;;;4412930;28;658097;-72
2023/12/12 14:14:11;;;;;;;42.57;21.90;;;4.10;99.90;;;;;;4423665;28;657136;-72
2023/12/12 14:16:59;;;;;;;39.20;20.33;;;4.10;99.90;;;;;;4394415;28;657664;-72
2023/12/12 14:19:46;;;;;;;49.65;24.63;;;4.10;99.90;;;;;;4416735;28;657752;-72